Time;durP1;ratioP1;P1;durP2;ratioP2;P2;SDS_P1;SDS_P2;PMS_P1;PMS_P2;Temp;Humidity;BMP_temperature;BMP_pressure;BME280_temperature;BME280_humidity;BME280_pressure;Samples;Min_cycle;Max_cycle;Signal;HPM_P1;HPM_P2
2024/04/23 00:02:00;;;;;;;;;;;;;;;15.98;55.55;101267.09;5386536;26;1931;-56
2024/04/23 00:04:26;;;;;;;;;;;;;;;15.81;55.71;101264.44;5386326;26;1250;-55
2024/04/23 00:06:56;;;;;;;;;;;;;;;16.05;55.82;101272.38;5386863;26;1211;-56
2024/04/23 00:09:21;;;;;;;;;;;;;;;17.50;53.00;101266.09;5387260;26;1244;-55
2024/04/23 00:11:47;;;;;;;;;;;;;;;17.36;52.95;101271.25;5386082;26;2314;-55
2024/04/23 00:14:12;;;;;;;;;;;;;;;16.63;54.78;101275.38;5386806;26;968;-56
2024/04/23 00:16:38;;;;;;;;;;;;;;;16.35;55.11;101262.78;5387182;26;1369;-57
2024/04/23 00:19:03;;;;;;;;;;;;;;;16.14;55.57;101256.28;5386486;26;1271;-56
2024/04/23 00:21:29;;;;;;;;;;;;;;;15.96;55.71;101266.50;5389275;26;1874;-56
2024/04/23 00:23:55;;;;;;;;;;;;;;;15.99;55.80;101255.03;5407373;26;1163;-56
2024/04/23 00:26:20;;;;;;;;;;;;;;;17.48;52.98;101246.31;5386027;26;1051;-56
2024/04/23 00:28:46;;;;;;;;;;;;;;;17.18;53.43;101247.78;5386628;26;1350;-56
2024/04/23 00:31:11;;;;;;;;;;;;;;;16.57;54.90;101249.81;5386510;26;1266;-56
2024/04/23 00:33:37;;;;;;;;;;;;;;;16.26;55.32;101240.47;5386290;26;1381;-56
2024/04/23 00:36:02;;;;;;;;;;;;;;;16.08;55.66;101238.94;5386951;26;1314;-56
2024/04/23 00:38:28;;;;;;;;;;;;;;;16.01;55.53;101236.38;5386568;26;1068;-56
2024/04/23 00:40:54;;;;;;;;;;;;;;;15.97;55.92;101245.41;5386639;26;1121;-56
2024/04/23 00:43:19;;;;;;;;;;;;;;;17.43;53.13;101242.44;5386152;26;2556;-56
2024/04/23 00:45:49;;;;;;;;;;;;;;;17.53;52.40;101233.41;5355576;26;1512;-56
2024/04/23 00:48:15;;;;;;;;;;;;;;;16.68;54.48;101245.22;5386417;26;1262;-56
2024/04/23 00:50:41;;;;;;;;;;;;;;;16.36;55.27;101254.28;5352295;26;1064;-57
2024/04/23 00:53:07;;;;;;;;;;;;;;;16.20;55.37;101253.31;5386068;26;1266;-56
2024/04/23 00:55:32;;;;;;;;;;;;;;;16.01;55.64;101257.50;5385974;26;1479;-57
2024/04/23 00:57:58;;;;;;;;;;;;;;;15.90;55.72;101262.06;5386370;26;1333;-57
2024/04/23 01:00:23;;;;;;;;;;;;;;;16.59;55.15;101258.63;5386199;26;1167;-57
2024/04/23 01:02:49;;;;;;;;;;;;;;;17.86;51.94;101263.47;5385455;26;1850;-58
2024/04/23 01:05:15;;;;;;;;;;;;;;;16.94;53.89;101261.91;5386185;26;1282;-58
2024/04/23 01:07:40;;;;;;;;;;;;;;;16.51;54.87;101255.50;5386211;26;1250;-58
2024/04/23 01:10:06;;;;;;;;;;;;;;;16.18;55.70;101249.19;5355134;26;1205;-58
2024/04/23 01:12:31;;;;;;;;;;;;;;;16.08;55.58;101236.19;5385687;26;2567;-58
2024/04/23 01:14:57;;;;;;;;;;;;;;;15.92;55.85;101248.91;5385558;26;1039;-58
2024/04/23 01:17:22;;;;;;;;;;;;;;;16.92;54.50;101247.63;5355084;26;1255;-58
2024/04/23 01:19:50;;;;;;;;;;;;;;;17.56;52.50;101240.28;5385652;26;1254;-58
2024/04/23 01:22:34;;;;;;;;;;;;;;;16.65;54.94;101222.94;5384292;26;1925;-58
2024/04/23 01:25:09;;;;;;;;;;;;;;;16.29;55.34;101226.22;5385472;26;1254;-58
2024/04/23 01:27:35;;;;;;;;;;;;;;;16.12;55.52;101215.38;5385886;26;1176;-57
2024/04/23 01:30:01;;;;;;;;;;;;;;;15.95;55.64;101210.00;5348617;26;1236;-58
2024/04/23 01:32:26;;;;;;;;;;;;;;;16.68;55.01;101204.03;5371258;26;1600;-58
2024/04/23 01:34:52;;;;;;;;;;;;;;;17.66;52.35;101218.31;5385680;26;1238;-58
2024/04/23 01:37:17;;;;;;;;;;;;;;;16.68;54.75;101225.19;5385052;26;1270;-57
2024/04/23 01:39:43;;;;;;;;;;;;;;;16.31;55.39;101221.31;5354415;26;1129;-57
2024/04/23 01:42:09;;;;;;;;;;;;;;;16.11;55.82;101202.75;5368961;26;2502;-58
2024/04/23 01:44:34;;;;;;;;;;;;;;;15.96;55.79;101191.63;5389250;26;1250;-58
2024/04/23 01:47:00;;;;;;;;;;;;;;;16.73;54.98;101192.25;5385865;26;1200;-57
2024/04/23 01:49:25;;;;;;;;;;;;;;;17.60;52.40;101195.47;5385017;26;1227;-57
2024/04/23 01:51:51;;;;;;;;;;;;;;;16.71;54.62;101191.69;5354718;26;1148;-57
2024/04/23 01:54:16;;;;;;;;;;;;;;;16.31;55.52;101184.81;5354257;26;1121;-59
2024/04/23 01:56:42;;;;;;;;;;;;;;;16.20;55.47;101187.47;5385134;26;1400;-59
2024/04/23 01:59:08;;;;;;;;;;;;;;;16.00;55.64;101190.84;5385523;26;1259;-59
2024/04/23 02:01:34;;;;;;;;;;;;;;;17.19;53.83;101183.47;5384542;26;1833;-59
2024/04/23 02:04:00;;;;;;;;;;;;;;;17.42;52.77;101177.53;5354207;26;1161;-58
2024/04/23 02:06:26;;;;;;;;;;;;;;;16.69;54.63;101191.13;5383811;26;2176;-58
2024/04/23 02:08:51;;;;;;;;;;;;;;;16.31;55.46;101180.13;5378028;26;2739;-58
2024/04/23 02:11:17;;;;;;;;;;;;;;;16.13;55.64;101172.31;5352470;26;1240;-58
2024/04/23 02:13:42;;;;;;;;;;;;;;;16.02;55.66;101174.13;5385162;26;1349;-58
2024/04/23 02:16:08;;;;;;;;;;;;;;;16.80;54.93;101181.03;5408811;26;1239;-58
2024/04/23 02:18:34;;;;;;;;;;;;;;;17.62;52.50;101181.44;5384859;26;1592;-58
2024/04/23 02:20:59;;;;;;;;;;;;;;;16.73;54.65;101175.78;5385135;26;1188;-58
2024/04/23 02:23:25;;;;;;;;;;;;;;;16.39;55.27;101170.59;5385045;26;1837;-58
2024/04/23 02:25:50;;;;;;;;;;;;;;;16.21;55.47;101169.09;5384982;26;1205;-58
2024/04/23 02:28:16;;;;;;;;;;;;;;;16.05;55.58;101171.69;5384129;26;1378;-58
2024/04/23 02:30:41;;;;;;;;;;;;;;;15.90;55.75;101174.28;5385235;26;1137;-58
2024/04/23 02:33:11;;;;;;;;;;;;;;;16.12;55.90;101167.91;5384727;26;1164;-58
2024/04/23 02:35:40;;;;;;;;;;;;;;;17.59;52.83;101176.50;5385802;26;1263;-59
2024/04/23 02:38:05;;;;;;;;;;;;;;;17.16;53.75;101173.84;5384669;26;1260;-59
2024/04/23 02:40:31;;;;;;;;;;;;;;;16.60;54.94;101188.06;5385018;26;1139;-59
2024/04/23 02:42:57;;;;;;;;;;;;;;;16.30;55.50;101192.22;5384395;26;1833;-59
2024/04/23 02:45:23;;;;;;;;;;;;;;;16.10;55.74;101200.25;5385083;26;1357;-58
2024/04/23 02:47:48;;;;;;;;;;;;;;;16.00;55.88;101201.81;5384752;26;1149;-58
2024/04/23 02:50:14;;;;;;;;;;;;;;;17.42;53.37;101205.03;5384515;26;1260;-58
2024/04/23 02:52:39;;;;;;;;;;;;;;;17.22;53.41;101204.94;5384301;26;1286;-57
2024/04/23 02:55:05;;;;;;;;;;;;;;;16.60;54.95;101199.84;5384769;26;1270;-58
2024/04/23 02:57:30;;;;;;;;;;;;;;;16.30;55.53;101200.47;5384552;26;1283;-58
2024/04/23 02:59:56;;;;;;;;;;;;;;;16.17;55.47;101198.13;5384663;26;1262;-58
2024/04/23 03:02:22;;;;;;;;;;;;;;;16.01;55.66;101197.97;5353175;26;1868;-59
2024/04/23 03:04:47;;;;;;;;;;;;;;;15.86;55.86;101195.91;5384188;26;1176;-59
2024/04/23 03:07:13;;;;;;;;;;;;;;;16.11;55.89;101202.75;5407967;26;1195;-59
2024/04/23 03:09:38;;;;;;;;;;;;;;;17.54;53.22;101187.47;5384612;26;1343;-59
2024/04/23 03:12:04;;;;;;;;;;;;;;;17.34;53.28;101191.78;5384129;26;1192;-59
2024/04/23 03:14:30;;;;;;;;;;;;;;;16.57;55.09;101185.84;5383754;26;1247;-58
2024/04/23 03:16:55;;;;;;;;;;;;;;;16.25;55.63;101187.50;5384074;26;1191;-58
2024/04/23 03:19:22;;;;;;;;;;;;;;;16.12;55.80;101187.94;5384575;26;1346;-59
2024/04/23 03:21:48;;;;;;;;;;;;;;;16.42;55.59;101173.66;5384154;26;1824;-58
2024/04/23 03:24:14;;;;;;;;;;;;;;;17.70;52.49;101178.19;5384077;26;1567;-57
2024/04/23 03:26:39;;;;;;;;;;;;;;;16.77;54.87;101188.72;5383701;26;1164;-58
2024/04/23 03:29:05;;;;;;;;;;;;;;;16.42;55.46;101195.63;5384051;26;1262;-57
2024/04/23 03:31:30;;;;;;;;;;;;;;;16.22;55.62;101198.19;5382126;26;1359;-58
2024/04/23 03:33:56;;;;;;;;;;;;;;;16.05;55.85;101204.63;5383335;26;1599;-57
2024/04/23 03:36:22;;;;;;;;;;;;;;;15.92;55.92;101205.00;5384090;26;1222;-60
2024/04/23 03:38:47;;;;;;;;;;;;;;;16.44;56.01;101214.56;5384208;26;1291;-59
2024/04/23 03:41:13;;;;;;;;;;;;;;;17.75;52.58;101222.19;5387264;26;1851;-58
2024/04/23 03:43:38;;;;;;;;;;;;;;;16.84;54.76;101232.41;5387048;26;2438;-58
2024/04/23 03:46:04;;;;;;;;;;;;;;;16.41;55.51;101242.53;5386659;26;1257;-57
2024/04/23 03:48:29;;;;;;;;;;;;;;;16.23;55.75;101254.72;5387130;26;2144;-57
2024/04/23 03:50:55;;;;;;;;;;;;;;;16.06;55.87;101265.78;5386692;26;2184;-58
2024/04/23 03:53:21;;;;;;;;;;;;;;;16.48;55.87;101272.50;5387067;26;2456;-58
2024/04/23 03:55:46;;;;;;;;;;;;;;;17.85;52.55;101267.31;5387132;26;2268;-62
2024/04/23 03:58:12;;;;;;;;;;;;;;;17.00;54.35;101269.13;5384658;26;1515;-58
2024/04/23 04:00:37;;;;;;;;;;;;;;;16.55;55.31;101290.44;5380827;26;1491;-60
2024/04/23 04:08:34;;;;;;;;;;;;;;;16.43;54.07;101323.53;5384951;26;1211;-59
2024/04/23 04:11:00;;;;;;;;;;;;;;;16.13;52.73;101312.22;5389588;26;1020;-59
2024/04/23 04:13:26;;;;;;;;;;;;;;;16.07;51.56;101303.94;5384777;26;1101;-58
2024/04/23 04:15:51;;;;;;;;;;;;;;;15.88;50.84;101302.63;5384784;26;1079;-58
2024/04/23 04:18:17;;;;;;;;;;;;;;;15.80;50.27;101278.41;5386013;26;1243;-58
2024/04/23 04:20:43;;;;;;;;;;;;;;;16.79;53.26;101276.34;5386343;26;1250;-58
2024/04/23 04:23:08;;;;;;;;;;;;;;;16.18;52.77;101269.19;5386562;26;1829;-59
2024/04/23 04:25:34;;;;;;;;;;;;;;;15.95;51.68;101270.34;5385839;26;2914;-58
2024/04/23 04:28:00;;;;;;;;;;;;;;;15.99;51.32;101266.00;5385730;26;1251;-58
2024/04/23 04:30:25;;;;;;;;;;;;;;;16.44;52.79;101258.50;5386492;26;1334;-57
2024/04/23 04:32:51;;;;;;;;;;;;;;;16.10;51.91;101250.47;5386096;26;1123;-59
2024/04/23 04:35:16;;;;;;;;;;;;;;;15.88;50.83;101251.34;5386144;26;1384;-58
2024/04/23 04:37:42;;;;;;;;;;;;;;;15.85;50.09;101248.28;5385394;26;1227;-57
2024/04/23 04:40:08;;;;;;;;;;;;;;;16.77;51.64;101253.78;5376162;26;1812;-57
2024/04/23 04:42:33;;;;;;;;;;;;;;;16.07;52.00;101251.84;5384232;26;1948;-58
2024/04/23 04:44:59;;;;;;;;;;;;;;;15.92;50.69;101248.91;5383877;26;1851;-57
2024/04/23 04:47:24;;;;;;;;;;;;;;;16.53;51.81;101247.84;5378135;26;1390;-59
2024/04/23 04:49:50;;;;;;;;;;;;;;;16.11;51.39;101251.31;5385852;26;1350;-57
2024/04/23 04:52:15;;;;;;;;;;;;;;;15.90;50.47;101246.41;5384646;26;1289;-57
2024/04/23 04:54:41;;;;;;;;;;;;;;;15.78;49.86;101250.34;5385680;26;2871;-57
2024/04/23 04:57:06;;;;;;;;;;;;;;;16.62;51.35;101245.44;5385720;26;989;-58
2024/04/23 04:59:32;;;;;;;;;;;;;;;15.98;51.43;101253.38;5385637;26;1128;-57
2024/04/23 05:01:58;;;;;;;;;;;;;;;15.93;50.05;101253.31;5385724;26;1858;-58
2024/04/23 05:04:23;;;;;;;;;;;;;;;16.90;51.46;101236.06;5372599;26;1364;-59
2024/04/23 05:06:49;;;;;;;;;;;;;;;16.22;51.69;101245.66;5377007;26;1296;-59
2024/04/23 05:09:15;;;;;;;;;;;;;;;16.04;50.79;101240.53;5385306;26;1129;-58
2024/04/23 05:11:43;;;;;;;;;;;;;;;15.89;49.79;101238.44;5385194;26;1146;-58
2024/04/23 05:14:09;;;;;;;;;;;;;;;15.81;49.14;101231.53;5384801;26;1145;-60
2024/04/23 05:16:35;;;;;;;;;;;;;;;15.89;49.18;101222.00;5385048;26;1044;-58
2024/04/23 05:19:01;;;;;;;;;;;;;;;16.99;51.08;101219.94;5384989;26;1163;-58
2024/04/23 05:21:27;;;;;;;;;;;;;;;16.26;51.35;101210.28;5384895;26;1826;-58
2024/04/23 05:23:52;;;;;;;;;;;;;;;15.95;50.49;101207.25;5385169;26;1306;-58
2024/04/23 05:26:18;;;;;;;;;;;;;;;15.83;49.69;101204.66;5379670;26;3090;-58
2024/04/23 05:28:43;;;;;;;;;;;;;;;16.58;50.99;101199.31;5376761;26;1653;-59
2024/04/23 05:33:53;;;;;;;;;;;;;;;15.88;49.96;101209.38;5380562;26;1256;-58
2024/04/23 05:36:22;;;;;;;;;;;;;;;15.73;49.32;101208.09;5383826;26;1373;-59
2024/04/23 05:38:48;;;;;;;;;;;;;;;15.76;48.66;101223.19;5383663;26;1491;-57
2024/04/23 05:41:14;;;;;;;;;;;;;;;16.76;50.44;101227.44;5383478;26;1880;-58
2024/04/23 05:43:39;;;;;;;;;;;;;;;16.04;51.00;101215.84;5384247;26;1267;-58
2024/04/23 05:46:05;;;;;;;;;;;;;;;15.84;50.01;101230.19;5383864;26;1218;-58
2024/04/23 05:48:49;;;;;;;;;;;;;;;15.80;49.06;101227.13;5369518;26;1503;-58
2024/04/23 05:51:52;;;;;;;;;;;;;;;16.73;50.40;101220.56;5383417;26;1198;-58
2024/04/23 05:54:55;;;;;;;;;;;;;;;15.97;50.52;101217.97;5383678;26;2809;-58
2024/04/23 05:57:39;;;;;;;;;;;;;;;16.99;50.90;101226.25;5373136;26;1335;-58
2024/04/23 06:00:05;;;;;;;;;;;;;;;16.25;51.31;101214.13;5384030;26;1287;-59
2024/04/23 06:02:33;;;;;;;;;;;;;;;16.04;50.33;101224.88;5376295;26;1826;-57
2024/04/23 06:04:59;;;;;;;;;;;;;;;16.81;51.02;101232.13;5382846;26;1287;-64
2024/04/23 06:07:24;;;;;;;;;;;;;;;16.27;50.91;101233.91;5378524;26;1425;-61
2024/04/23 06:09:50;;;;;;;;;;;;;;;16.05;49.88;101239.47;5384360;26;1364;-64
2024/04/23 06:12:16;;;;;;;;;;;;;;;16.18;50.32;101247.25;5382930;26;1394;-63
2024/04/23 06:14:43;;;;;;;;;;;;;;;16.39;50.97;101261.19;5384514;26;1289;-66
2024/04/23 06:17:21;;;;;;;;;;;;;;;15.98;50.39;101275.31;5383463;26;1175;-60
2024/04/23 06:19:50;;;;;;;;;;;;;;;15.86;49.41;101264.47;5379065;26;1454;-63
2024/04/23 06:22:25;;;;;;;;;;;;;;;15.74;48.64;101261.03;5362625;26;1830;-61
2024/04/23 06:24:52;;;;;;;;;;;;;;;15.97;48.65;101265.41;5353398;26;2710;-62
2024/04/23 06:27:21;;;;;;;;;;;;;;;16.51;50.29;101255.50;5384121;26;1235;-62
2024/04/23 06:29:47;;;;;;;;;;;;;;;16.03;50.02;101236.97;5370578;26;1575;-63
2024/04/23 06:32:13;;;;;;;;;;;;;;;15.80;49.71;101234.53;5382047;26;1503;-64
2024/04/23 06:34:39;;;;;;;;;;;;;;;15.77;48.83;101234.97;5382445;26;1394;-64
2024/04/23 06:37:05;;;;;;;;;;;;;;;15.70;48.41;101252.47;5383126;26;1550;-64
2024/04/23 06:39:30;;;;;;;;;;;;;;;16.38;49.95;101241.16;5382354;26;1511;-62
2024/04/23 06:41:56;;;;;;;;;;;;;;;15.96;49.80;101250.03;5381117;26;1834;-65
2024/04/23 06:44:21;;;;;;;;;;;;;;;15.79;48.99;101260.25;5382801;26;1571;-67
2024/04/23 06:46:47;;;;;;;;;;;;;;;15.68;48.58;101270.25;5350090;26;2163;-67
2024/04/23 06:49:13;;;;;;;;;;;;;;;16.43;50.05;101270.56;5351487;26;1437;-65
2024/04/23 06:51:38;;;;;;;;;;;;;;;15.90;50.24;101267.53;5382158;26;1455;-66
2024/04/23 06:54:04;;;;;;;;;;;;;;;15.79;49.43;101254.75;5381780;26;1298;-62
2024/04/23 06:56:29;;;;;;;;;;;;;;;16.48;50.16;101251.38;5383479;26;2954;-63
2024/04/23 06:58:55;;;;;;;;;;;;;;;15.98;50.15;101238.84;5379904;26;1324;-62
2024/04/23 07:01:21;;;;;;;;;;;;;;;15.81;49.50;101231.53;5374958;26;1822;-62
2024/04/23 07:03:46;;;;;;;;;;;;;;;15.74;48.75;101236.34;5365252;26;1628;-62
2024/04/23 07:06:12;;;;;;;;;;;;;;;15.71;48.70;101232.22;5374274;26;1386;-61
2024/04/23 07:08:37;;;;;;;;;;;;;;;16.28;50.19;101243.78;5383000;26;1273;-60
2024/04/23 07:11:03;;;;;;;;;;;;;;;15.90;49.84;101259.31;5382556;26;1241;-60
2024/04/23 07:13:28;;;;;;;;;;;;;;;15.77;49.05;101262.41;5383060;26;1515;-65
2024/04/23 07:15:54;;;;;;;;;;;;;;;15.66;48.55;101258.72;5385602;26;1499;-64
2024/04/23 07:18:20;;;;;;;;;;;;;;;15.64;47.94;101269.97;5384217;26;1375;-64
2024/04/23 07:20:45;;;;;;;;;;;;;;;16.42;49.56;101269.72;5379038;26;1393;-65
2024/04/23 07:23:11;;;;;;;;;;;;;;;15.94;49.57;101263.19;5386411;26;1840;-65
2024/04/23 07:25:37;;;;;;;;;;;;;;;15.64;49.30;101253.50;5386728;26;2892;-60
2024/04/23 07:28:03;;;;;;;;;;;;;;;17.03;49.89;101254.03;5386178;26;1247;-64
2024/04/23 07:30:28;;;;;;;;;;;;;;;16.20;50.88;101249.72;5377588;26;1562;-64
2024/04/23 07:32:55;;;;;;;;;;;;;;;16.01;49.75;101228.16;5377561;26;1338;-65
2024/04/23 07:35:21;;;;;;;;;;;;;;;15.84;48.93;101222.78;5385426;26;1370;-62
2024/04/23 07:37:46;;;;;;;;;;;;;;;15.79;48.41;101186.22;5385952;26;1121;-62
2024/04/23 07:40:12;;;;;;;;;;;;;;;15.64;48.21;101174.00;5382272;26;1508;-59
2024/04/23 07:42:37;;;;;;;;;;;;;;;15.51;47.86;101169.72;5383890;26;1830;-59
2024/04/23 07:45:03;;;;;;;;;;;;;;;16.10;48.99;101172.81;5384769;26;1171;-59
2024/04/23 07:47:29;;;;;;;;;;;;;;;16.23;50.17;101164.19;5386090;26;1240;-59
2024/04/23 07:49:55;;;;;;;;;;;;;;;15.81;49.93;101162.13;5386705;26;1140;-60
2024/04/23 07:52:20;;;;;;;;;;;;;;;16.05;49.74;101159.91;5385899;26;1258;-60
2024/04/23 07:54:50;;;;;;;;;;;;;;;16.55;50.86;101168.78;5385986;26;2834;-59
2024/04/23 07:57:16;;;;;;;;;;;;;;;16.03;50.57;101178.53;5386666;26;1294;-59
2024/04/23 07:59:42;;;;;;;;;;;;;;;15.88;49.68;101199.22;5386534;26;1274;-59
2024/04/23 08:02:07;;;;;;;;;;;;;;;16.69;50.79;101208.44;5387103;26;1880;-60
2024/04/23 08:04:33;;;;;;;;;;;;;;;16.12;50.49;101203.56;5354803;26;1131;-60
2024/04/23 08:06:59;;;;;;;;;;;;;;;15.94;49.52;101211.09;5387176;26;1100;-59
2024/04/23 08:09:24;;;;;;;;;;;;;;;15.76;48.65;101205.94;5386632;26;1200;-59
2024/04/23 08:11:50;;;;;;;;;;;;;;;15.68;48.25;101209.94;5387046;26;1217;-59
2024/04/23 08:14:15;;;;;;;;;;;;;;;16.67;49.65;101194.13;5386134;26;1193;-60
2024/04/23 08:16:41;;;;;;;;;;;;;;;16.07;50.13;101191.47;5384674;26;1255;-59
2024/04/23 08:19:07;;;;;;;;;;;;;;;15.95;49.70;101182.59;5386233;26;1152;-59
2024/04/23 08:21:32;;;;;;;;;;;;;;;16.76;50.42;101181.59;5384105;26;1818;-60
2024/04/23 08:23:58;;;;;;;;;;;;;;;16.09;50.57;101161.03;5386290;26;1302;-59
2024/04/23 08:26:23;;;;;;;;;;;;;;;15.94;49.52;101158.16;5382247;26;2856;-59
2024/04/23 08:28:52;;;;;;;;;;;;;;;16.72;50.51;101153.00;5372277;26;1132;-59
2024/04/23 08:31:19;;;;;;;;;;;;;;;16.29;50.85;101143.91;5386008;26;1262;-59
2024/04/23 08:33:44;;;;;;;;;;;;;;;16.02;49.97;101122.00;5386532;26;1140;-59
2024/04/23 08:36:10;;;;;;;;;;;;;;;15.82;49.39;101118.00;5386186;26;1234;-59
2024/04/23 08:38:36;;;;;;;;;;;;;;;15.80;48.58;101113.88;5366709;26;1457;-59
2024/04/23 08:41:03;;;;;;;;;;;;;;;15.61;48.58;101133.38;5385414;26;1527;-59
2024/04/23 08:43:34;;;;;;;;;;;;;;;16.25;49.03;101129.88;5378688;26;1855;-59
2024/04/23 08:46:00;;;;;;;;;;;;;;;16.24;50.45;101130.13;5368550;26;1227;-59
2024/04/23 08:48:29;;;;;;;;;;;;;;;15.92;49.73;101139.19;5386518;26;1389;-59
2024/04/23 08:50:57;;;;;;;;;;;;;;;15.85;48.68;101130.34;5385875;26;1187;-59
2024/04/23 08:53:23;;;;;;;;;;;;;;;15.78;48.14;101126.97;5335362;26;1719;-59
2024/04/23 08:55:48;;;;;;;;;;;;;;;16.82;49.50;101137.69;5385388;26;2778;-59
2024/04/23 08:58:14;;;;;;;;;;;;;;;16.08;50.16;101127.28;5348977;26;1140;-59
2024/04/23 09:00:41;;;;;;;;;;;;;;;16.85;50.39;101146.19;5355171;26;1205;-59
2024/04/23 09:03:12;;;;;;;;;;;;;;;16.83;51.40;101153.88;5384456;26;1832;-59
2024/04/23 09:05:38;;;;;;;;;;;;;;;16.18;51.26;101180.59;5354928;26;1108;-59
2024/04/23 09:08:04;;;;;;;;;;;;;;;16.10;49.84;101187.38;5363528;26;1243;-59
2024/04/23 09:10:30;;;;;;;;;;;;;;;15.98;49.01;101194.94;5354932;26;1255;-59
2024/04/23 09:12:55;;;;;;;;;;;;;;;15.87;48.25;101203.06;5354858;26;1213;-58
2024/04/23 09:15:21;;;;;;;;;;;;;;;15.80;47.77;101196.13;5349324;26;1220;-59
2024/04/23 09:17:55;;;;;;;;;;;;;;;15.70;47.27;101200.38;5385215;26;1036;-59
2024/04/23 09:20:22;;;;;;;;;;;;;;;16.08;48.44;101201.34;5385043;26;1262;-58
2024/04/23 09:22:51;;;;;;;;;;;;;;;16.16;50.51;101200.06;5380315;26;1830;-59
2024/04/23 09:25:17;;;;;;;;;;;;;;;15.87;49.67;101202.25;5388792;26;2645;-62
2024/04/23 09:27:43;;;;;;;;;;;;;;;15.79;48.77;101205.41;5383719;26;1208;-62
2024/04/23 09:30:08;;;;;;;;;;;;;;;15.70;47.96;101196.81;5353587;26;1068;-61
2024/04/23 09:32:34;;;;;;;;;;;;;;;16.41;49.46;101193.97;5384655;26;1143;-60
2024/04/23 09:35:00;;;;;;;;;;;;;;;16.10;50.35;101198.34;5384129;26;1440;-59
2024/04/23 09:37:26;;;;;;;;;;;;;;;15.87;49.38;101196.75;5384521;26;1252;-59
2024/04/23 09:39:59;;;;;;;;;;;;;;;16.31;49.97;101185.63;5384530;26;1180;-65
2024/04/23 09:42:25;;;;;;;;;;;;;;;16.15;50.36;101183.84;5377672;26;1826;-67
2024/04/23 09:44:51;;;;;;;;;;;;;;;15.83;49.54;101185.47;5383540;26;1216;-63
2024/04/23 09:47:16;;;;;;;;;;;;;;;15.78;48.59;101177.16;5384169;26;1242;-60
2024/04/23 09:50:00;;;;;;;;;;;;;;;16.88;49.89;101175.91;5378653;26;1560;-60
2024/04/23 09:52:29;;;;;;;;;;;;;;;16.15;50.42;101175.63;5380621;26;1178;-60
2024/04/23 09:54:55;;;;;;;;;;;;;;;15.94;49.38;101158.16;5379516;26;2684;-60
2024/04/23 09:57:21;;;;;;;;;;;;;;;16.54;50.03;101164.41;5369552;26;1219;-60
2024/04/23 09:59:46;;;;;;;;;;;;;;;16.36;50.74;101160.97;5384282;26;1036;-61
2024/04/23 10:02:12;;;;;;;;;;;;;;;15.97;50.12;101138.44;5384380;26;1862;-60
2024/04/23 10:04:37;;;;;;;;;;;;;;;15.85;49.24;101133.94;5353743;26;1133;-59
2024/04/23 10:07:04;;;;;;;;;;;;;;;15.81;48.47;101127.31;5351766;26;1221;-59
2024/04/23 10:09:32;;;;;;;;;;;;;;;15.73;47.75;101114.88;5384182;26;1408;-61
2024/04/23 10:12:07;;;;;;;;;;;;;;;16.72;49.79;101111.81;5384833;26;1141;-59
2024/04/23 10:14:34;;;;;;;;;;;;;;;16.07;49.92;101108.34;5383776;26;1216;-62
2024/04/23 10:17:03;;;;;;;;;;;;;;;15.85;49.13;101105.69;5373939;26;1441;-59
2024/04/23 10:19:29;;;;;;;;;;;;;;;15.84;48.21;101104.03;5338515;26;1219;-60
2024/04/23 10:21:54;;;;;;;;;;;;;;;16.70;49.50;101103.00;5384713;26;1857;-63
2024/04/23 10:24:20;;;;;;;;;;;;;;;16.10;50.34;101090.53;5384916;26;2804;-60
2024/04/23 10:26:47;;;;;;;;;;;;;;;15.85;49.51;101079.09;5372523;26;1379;-62
2024/04/23 10:29:15;;;;;;;;;;;;;;;16.62;50.33;101083.44;5380483;26;1631;-65
2024/04/23 10:31:41;;;;;;;;;;;;;;;16.00;50.48;101080.31;5383831;26;1363;-64
2024/04/23 10:34:07;;;;;;;;;;;;;;;15.89;49.29;101069.25;5382801;26;1415;-64
2024/04/23 10:36:38;;;;;;;;;;;;;;;15.75;48.64;101070.72;5383542;26;1451;-67
2024/04/23 10:39:05;;;;;;;;;;;;;;;15.67;48.05;101063.81;5377477;26;1760;-64
2024/04/23 10:41:33;;;;;;;;;;;;;;;16.95;49.85;101062.22;5382869;26;1825;-62
2024/04/23 10:43:58;;;;;;;;;;;;;;;16.13;50.52;101038.72;5344002;26;1402;-59
2024/04/23 10:46:24;;;;;;;;;;;;;;;15.89;49.67;101021.78;5352671;26;1339;-63
2024/04/23 10:48:55;;;;;;;;;;;;;;;15.87;48.65;101010.28;5383459;26;1203;-62
2024/04/23 10:51:21;;;;;;;;;;;;;;;15.73;48.16;101010.69;5386882;26;1496;-62
2024/04/23 10:53:47;;;;;;;;;;;;;;;15.71;47.49;101001.91;5385330;26;1343;-61
2024/04/23 10:56:25;;;;;;;;;;;;;;;15.91;48.16;100978.50;5385798;26;2787;-60
2024/04/23 10:59:03;;;;;;;;;;;;;;;16.41;49.98;100963.41;5385776;26;1197;-61
2024/04/23 11:01:29;;;;;;;;;;;;;;;15.90;49.93;100958.47;5349895;26;1821;-61
2024/04/23 11:04:01;;;;;;;;;;;;;;;15.77;48.99;100966.28;5379314;26;1318;-63
2024/04/23 11:06:36;;;;;;;;;;;;;;;15.61;48.48;100976.31;5386806;26;1065;-65
2024/04/23 11:09:12;;;;;;;;;;;;;;;15.53;47.95;100966.69;5385588;26;1246;-63
2024/04/23 11:11:37;;;;;;;;;;;;;;;16.52;49.12;100960.69;5385325;26;1341;-61
2024/04/23 11:14:03;;;;;;;;;;;;;;;15.90;49.57;100952.97;5385841;26;1217;-63
2024/04/23 11:16:29;;;;;;;;;;;;;;;16.06;50.01;100953.06;5348751;26;1730;-62
2024/04/23 11:18:57;;;;;;;;;;;;;;;16.45;50.37;100951.88;5382174;26;1635;-59
2024/04/23 11:21:23;;;;;;;;;;;;;;;15.99;50.05;100952.47;5383361;26;1825;-62
2024/04/23 11:23:49;;;;;;;;;;;;;;;15.86;48.92;100959.25;5386503;26;1112;-60
2024/04/23 11:26:15;;;;;;;;;;;;;;;15.77;48.21;100944.34;5387237;26;2907;-62
2024/04/23 11:28:40;;;;;;;;;;;;;;;16.45;49.90;100954.63;5386196;26;1362;-60
2024/04/23 11:31:06;;;;;;;;;;;;;;;15.97;49.58;100966.47;5383401;26;1498;-61
2024/04/23 11:33:31;;;;;;;;;;;;;;;17.00;49.87;100969.66;5385910;26;1355;-63
2024/04/23 11:35:58;;;;;;;;;;;;;;;16.38;50.77;100963.94;5386056;26;1484;-63
2024/04/23 11:38:23;;;;;;;;;;;;;;;16.11;49.86;100971.50;5386464;26;1270;-63
2024/04/23 11:40:49;;;;;;;;;;;;;;;15.94;49.07;100960.69;5351203;26;1454;-61
2024/04/23 11:43:18;;;;;;;;;;;;;;;15.79;48.47;100964.13;5384181;26;1859;-61
2024/04/23 11:45:45;;;;;;;;;;;;;;;15.82;48.41;100963.63;5386743;26;1183;-60
2024/04/23 11:48:11;;;;;;;;;;;;;;;16.41;50.06;100968.06;5386085;26;1480;-61
2024/04/23 11:50:37;;;;;;;;;;;;;;;15.91;49.95;100973.81;5355962;26;1164;-60
2024/04/23 11:53:02;;;;;;;;;;;;;;;15.91;48.75;100975.75;5363968;26;1205;-63
2024/04/23 11:55:28;;;;;;;;;;;;;;;16.62;49.78;100968.16;5386303;26;2845;-61
2024/04/23 11:57:53;;;;;;;;;;;;;;;16.19;50.17;100962.75;5385807;26;1261;-62
2024/04/23 12:00:22;;;;;;;;;;;;;;;15.93;49.50;100953.53;5383676;26;1569;-61
2024/04/23 12:02:47;;;;;;;;;;;;;;;15.84;48.69;100940.34;5384852;26;1818;-61
2024/04/23 12:05:16;;;;;;;;;;;;;;;15.71;48.08;100938.84;5385928;26;1267;-62
2024/04/23 12:07:41;;;;;;;;;;;;;;;15.63;47.60;100949.50;5386228;26;1362;-61
2024/04/23 12:10:09;;;;;;;;;;;;;;;16.65;48.88;100949.22;5355460;26;1187;-61
2024/04/23 12:12:35;;;;;;;;;;;;;;;15.97;49.48;100930.81;5384825;26;1359;-61
2024/04/23 12:15:04;;;;;;;;;;;;;;;15.82;48.66;100936.19;5386286;26;1487;-61
2024/04/23 12:17:30;;;;;;;;;;;;;;;16.84;49.43;100930.31;5386455;26;1225;-61
2024/04/23 12:19:56;;;;;;;;;;;;;;;16.04;50.20;100923.16;5384767;26;1299;-61
2024/04/23 12:22:21;;;;;;;;;;;;;;;15.87;49.41;100917.03;5386064;26;1833;-61
2024/04/23 12:24:48;;;;;;;;;;;;;;;15.71;48.70;100919.66;5384726;26;2704;-61
2024/04/23 12:27:13;;;;;;;;;;;;;;;16.77;49.31;100916.84;5385394;26;1366;-61
2024/04/23 12:29:39;;;;;;;;;;;;;;;16.03;50.09;100907.81;5355041;26;1234;-60
2024/04/23 12:32:05;;;;;;;;;;;;;;;15.86;49.24;100909.91;5385305;26;1319;-60
2024/04/23 12:34:30;;;;;;;;;;;;;;;15.83;48.60;100915.91;5385369;26;1535;-60
2024/04/23 12:36:56;;;;;;;;;;;;;;;15.76;48.29;100918.03;5386397;26;1274;-63
2024/04/23 12:39:21;;;;;;;;;;;;;;;16.25;49.23;100918.59;5385756;26;1101;-62
2024/04/23 12:41:47;;;;;;;;;;;;;;;16.84;49.88;100927.56;5354711;26;1821;-64
2024/04/23 12:44:16;;;;;;;;;;;;;;;17.98;50.09;100922.94;5385554;26;963;-64
2024/04/23 12:46:41;;;;;;;;;;;;;;;16.79;51.62;100915.75;5384296;26;1577;-62
2024/04/23 12:49:07;;;;;;;;;;;;;;;16.31;50.89;100904.91;5385425;26;1351;-64
2024/04/23 12:51:33;;;;;;;;;;;;;;;16.28;49.53;100880.75;5385604;26;1289;-62
2024/04/23 12:53:59;;;;;;;;;;;;;;;16.13;48.89;100859.56;5354953;26;1255;-59